Waveland, Arkansas
Current Conditions -  °F | °C
As of 2:53 AM on Wednesday 28 Jan 2015 (Local Time) from KRUE Reporting Station
Clear Clear  
Wind Chill: 43°   Ceiling: Unl
Heat Index: 47°   Visibility: 10mi
Dew Point: 36°   Wind: 8mph
Humidity: 66%   Direction: 110°ESE
Pressure: 30.18"   Gusts: NA
Location:  35.1238°N, 93.5884°W
Report Text: KRUE 280853Z AUTO 11007KT 10SM CLR 08/02 A3018 RMK AO2 SLP215 T00830022 53005
Loading
Personal Weather Stations






























Interactive Weather Map New forecast layout! Learn more

10-Day Weather Forecast

Advertisements
Track Severe Weather on mobile